sensor_id;sensor_type;location;lat;lon;timestamp;P1;durP1;ratioP1;P2;durP2;ratioP2
1000;SDS011;489;47.806;12.858;2023-12-14T00:01:51;1.70;;;1.20;;
1000;SDS011;489;47.806;12.858;2023-12-14T00:03:53;1.13;;;1.03;;
1000;SDS011;489;47.806;12.858;2023-12-14T00:05:55;2.07;;;1.87;;
1000;SDS011;489;47.806;12.858;2023-12-14T00:07:58;2.20;;;1.50;;
1000;SDS011;489;47.806;12.858;2023-12-14T00:10:00;3.07;;;2.23;;
1000;SDS011;489;47.806;12.858;2023-12-14T00:12:03;1.53;;;1.43;;
1000;SDS011;489;47.806;12.858;2023-12-14T00:14:05;2.20;;;1.70;;
1000;SDS011;489;47.806;12.858;2023-12-14T00:16:07;1.77;;;1.67;;
1000;SDS011;489;47.806;12.858;2023-12-14T00:18:10;2.13;;;1.20;;
1000;SDS011;489;47.806;12.858;2023-12-14T00:20:11;2.20;;;1.80;;
1000;SDS011;489;47.806;12.858;2023-12-14T00:22:14;1.50;;;1.40;;
1000;SDS011;489;47.806;12.858;2023-12-14T00:24:16;1.90;;;1.77;;
1000;SDS011;489;47.806;12.858;2023-12-14T00:26:18;2.93;;;1.90;;
1000;SDS011;489;47.806;12.858;2023-12-14T00:28:20;1.93;;;1.70;;
1000;SDS011;489;47.806;12.858;2023-12-14T00:30:22;1.67;;;1.57;;
1000;SDS011;489;47.806;12.858;2023-12-14T00:32:24;2.50;;;2.30;;
1000;SDS011;489;47.806;12.858;2023-12-14T00:34:26;2.33;;;1.67;;
1000;SDS011;489;47.806;12.858;2023-12-14T00:36:29;2.17;;;2.03;;
1000;SDS011;489;47.806;12.858;2023-12-14T00:38:31;2.47;;;2.27;;
1000;SDS011;489;47.806;12.858;2023-12-14T00:40:33;3.50;;;2.03;;
1000;SDS011;489;47.806;12.858;2023-12-14T00:42:35;3.90;;;2.00;;
1000;SDS011;489;47.806;12.858;2023-12-14T00:44:37;3.50;;;2.27;;
1000;SDS011;489;47.806;12.858;2023-12-14T00:46:39;2.63;;;2.33;;
1000;SDS011;489;47.806;12.858;2023-12-14T00:48:41;2.20;;;2.00;;
1000;SDS011;489;47.806;12.858;2023-12-14T00:50:44;3.10;;;2.27;;
1000;SDS011;489;47.806;12.858;2023-12-14T00:52:45;2.70;;;2.33;;
1000;SDS011;489;47.806;12.858;2023-12-14T00:54:46;2.77;;;2.30;;
1000;SDS011;489;47.806;12.858;2023-12-14T00:56:49;2.37;;;2.17;;
1000;SDS011;489;47.806;12.858;2023-12-14T00:58:51;1.20;;;1.10;;
1000;SDS011;489;47.806;12.858;2023-12-14T01:00:53;1.43;;;0.77;;
1000;SDS011;489;47.806;12.858;2023-12-14T01:02:55;0.80;;;0.70;;
1000;SDS011;489;47.806;12.858;2023-12-14T01:04:57;0.80;;;0.60;;
1000;SDS011;489;47.806;12.858;2023-12-14T01:06:59;1.37;;;0.63;;
1000;SDS011;489;47.806;12.858;2023-12-14T01:09:01;0.70;;;0.70;;
1000;SDS011;489;47.806;12.858;2023-12-14T01:11:03;1.37;;;0.53;;
1000;SDS011;489;47.806;12.858;2023-12-14T01:13:05;0.80;;;0.60;;
1000;SDS011;489;47.806;12.858;2023-12-14T01:15:08;0.50;;;0.43;;
1000;SDS011;489;47.806;12.858;2023-12-14T01:17:11;1.00;;;0.90;;
1000;SDS011;489;47.806;12.858;2023-12-14T01:19:13;1.00;;;0.90;;
1000;SDS011;489;47.806;12.858;2023-12-14T01:21:15;0.80;;;0.70;;
1000;SDS011;489;47.806;12.858;2023-12-14T01:23:15;0.83;;;0.73;;
1000;SDS011;489;47.806;12.858;2023-12-14T01:25:17;1.07;;;0.80;;
1000;SDS011;489;47.806;12.858;2023-12-14T01:27:18;0.80;;;0.63;;
1000;SDS011;489;47.806;12.858;2023-12-14T01:29:21;0.80;;;0.73;;
1000;SDS011;489;47.806;12.858;2023-12-14T01:31:23;0.63;;;0.57;;
1000;SDS011;489;47.806;12.858;2023-12-14T01:33:25;0.53;;;0.53;;
1000;SDS011;489;47.806;12.858;2023-12-14T01:35:27;0.50;;;0.40;;
1000;SDS011;489;47.806;12.858;2023-12-14T01:37:30;1.10;;;0.80;;
1000;SDS011;489;47.806;12.858;2023-12-14T01:39:32;0.77;;;0.60;;
1000;SDS011;489;47.806;12.858;2023-12-14T01:41:33;0.90;;;0.60;;
1000;SDS011;489;47.806;12.858;2023-12-14T01:43:35;0.70;;;0.70;;
1000;SDS011;489;47.806;12.858;2023-12-14T01:45:38;1.00;;;0.60;;
1000;SDS011;489;47.806;12.858;2023-12-14T01:47:39;0.83;;;0.67;;
1000;SDS011;489;47.806;12.858;2023-12-14T01:49:41;0.73;;;0.60;;
1000;SDS011;489;47.806;12.858;2023-12-14T01:51:43;0.50;;;0.50;;
1000;SDS011;489;47.806;12.858;2023-12-14T01:53:45;1.00;;;0.90;;
1000;SDS011;489;47.806;12.858;2023-12-14T01:55:47;0.50;;;0.50;;
1000;SDS011;489;47.806;12.858;2023-12-14T01:57:49;0.70;;;0.70;;
1000;SDS011;489;47.806;12.858;2023-12-14T01:59:51;1.90;;;0.70;;
1000;SDS011;489;47.806;12.858;2023-12-14T02:01:54;0.70;;;0.60;;
1000;SDS011;489;47.806;12.858;2023-12-14T02:03:57;0.70;;;0.70;;
1000;SDS011;489;47.806;12.858;2023-12-14T02:05:59;0.80;;;0.70;;
1000;SDS011;489;47.806;12.858;2023-12-14T02:08:01;0.70;;;0.70;;
1000;SDS011;489;47.806;12.858;2023-12-14T02:10:02;0.60;;;0.57;;
1000;SDS011;489;47.806;12.858;2023-12-14T02:12:05;0.60;;;0.60;;
1000;SDS011;489;47.806;12.858;2023-12-14T02:14:08;0.60;;;0.50;;
1000;SDS011;489;47.806;12.858;2023-12-14T02:16:11;0.90;;;0.70;;
1000;SDS011;489;47.806;12.858;2023-12-14T02:18:14;0.60;;;0.60;;
1000;SDS011;489;47.806;12.858;2023-12-14T02:20:17;0.80;;;0.60;;
1000;SDS011;489;47.806;12.858;2023-12-14T02:22:19;0.80;;;0.63;;
1000;SDS011;489;47.806;12.858;2023-12-14T02:24:21;1.10;;;0.90;;
1000;SDS011;489;47.806;12.858;2023-12-14T02:26:23;0.70;;;0.50;;
1000;SDS011;489;47.806;12.858;2023-12-14T02:28:24;0.87;;;0.70;;
1000;SDS011;489;47.806;12.858;2023-12-14T02:30:26;0.80;;;0.63;;
1000;SDS011;489;47.806;12.858;2023-12-14T02:32:28;1.77;;;0.67;;
1000;SDS011;489;47.806;12.858;2023-12-14T02:34:29;0.60;;;0.60;;
1000;SDS011;489;47.806;12.858;2023-12-14T02:36:31;0.77;;;0.63;;
1000;SDS011;489;47.806;12.858;2023-12-14T02:38:33;0.67;;;0.60;;
1000;SDS011;489;47.806;12.858;2023-12-14T02:40:37;0.50;;;0.40;;
1000;SDS011;489;47.806;12.858;2023-12-14T02:42:39;0.70;;;0.60;;
1000;SDS011;489;47.806;12.858;2023-12-14T02:44:40;1.33;;;0.50;;
1000;SDS011;489;47.806;12.858;2023-12-14T02:46:41;0.60;;;0.50;;
1000;SDS011;489;47.806;12.858;2023-12-14T02:48:43;2.00;;;0.60;;
1000;SDS011;489;47.806;12.858;2023-12-14T02:50:45;0.83;;;0.73;;
1000;SDS011;489;47.806;12.858;2023-12-14T02:52:47;0.80;;;0.70;;
1000;SDS011;489;47.806;12.858;2023-12-14T02:54:49;1.13;;;0.70;;
1000;SDS011;489;47.806;12.858;2023-12-14T02:56:51;0.80;;;0.70;;
1000;SDS011;489;47.806;12.858;2023-12-14T02:58:54;0.97;;;0.53;;
1000;SDS011;489;47.806;12.858;2023-12-14T03:00:55;0.80;;;0.53;;
1000;SDS011;489;47.806;12.858;2023-12-14T03:02:57;1.17;;;0.90;;
1000;SDS011;489;47.806;12.858;2023-12-14T03:05:00;0.60;;;0.60;;
1000;SDS011;489;47.806;12.858;2023-12-14T03:07:02;0.70;;;0.70;;
1000;SDS011;489;47.806;12.858;2023-12-14T03:09:03;0.60;;;0.50;;
1000;SDS011;489;47.806;12.858;2023-12-14T03:11:05;0.60;;;0.60;;
1000;SDS011;489;47.806;12.858;2023-12-14T03:13:07;0.60;;;0.60;;
1000;SDS011;489;47.806;12.858;2023-12-14T03:15:09;0.80;;;0.63;;
1000;SDS011;489;47.806;12.858;2023-12-14T03:17:11;0.70;;;0.60;;
1000;SDS011;489;47.806;12.858;2023-12-14T03:19:13;0.80;;;0.50;;
1000;SDS011;489;47.806;12.858;2023-12-14T03:21:16;0.90;;;0.70;;
1000;SDS011;489;47.806;12.858;2023-12-14T03:23:17;0.70;;;0.50;;
1000;SDS011;489;47.806;12.858;2023-12-14T03:25:19;0.60;;;0.50;;
1000;SDS011;489;47.806;12.858;2023-12-14T03:27:21;0.50;;;0.50;;
1000;SDS011;489;47.806;12.858;2023-12-14T03:29:26;0.70;;;0.50;;
1000;SDS011;489;47.806;12.858;2023-12-14T03:31:28;0.60;;;0.50;;
1000;SDS011;489;47.806;12.858;2023-12-14T03:33:29;0.60;;;0.50;;
1000;SDS011;489;47.806;12.858;2023-12-14T03:35:31;0.57;;;0.50;;
1000;SDS011;489;47.806;12.858;2023-12-14T03:37:32;0.40;;;0.40;;
1000;SDS011;489;47.806;12.858;2023-12-14T03:39:34;0.60;;;0.50;;
1000;SDS011;489;47.806;12.858;2023-12-14T03:41:35;0.60;;;0.50;;
1000;SDS011;489;47.806;12.858;2023-12-14T03:43:37;0.70;;;0.50;;
1000;SDS011;489;47.806;12.858;2023-12-14T03:45:40;0.60;;;0.40;;
1000;SDS011;489;47.806;12.858;2023-12-14T03:47:43;0.50;;;0.40;;
1000;SDS011;489;47.806;12.858;2023-12-14T03:49:45;1.37;;;0.50;;
1000;SDS011;489;47.806;12.858;2023-12-14T03:51:47;0.60;;;0.50;;
1000;SDS011;489;47.806;12.858;2023-12-14T03:53:49;0.50;;;0.40;;
1000;SDS011;489;47.806;12.858;2023-12-14T03:55:51;0.60;;;0.50;;
1000;SDS011;489;47.806;12.858;2023-12-14T03:57:53;0.50;;;0.40;;
1000;SDS011;489;47.806;12.858;2023-12-14T03:59:55;0.50;;;0.30;;
1000;SDS011;489;47.806;12.858;2023-12-14T04:01:57;0.60;;;0.40;;
1000;SDS011;489;47.806;12.858;2023-12-14T04:03:59;0.50;;;0.40;;
1000;SDS011;489;47.806;12.858;2023-12-14T04:06:01;0.67;;;0.40;;
1000;SDS011;489;47.806;12.858;2023-12-14T04:08:04;0.73;;;0.50;;
1000;SDS011;489;47.806;12.858;2023-12-14T04:10:07;0.50;;;0.30;;
1000;SDS011;489;47.806;12.858;2023-12-14T04:12:11;0.50;;;0.40;;
1000;SDS011;489;47.806;12.858;2023-12-14T04:14:12;0.90;;;0.60;;
1000;SDS011;489;47.806;12.858;2023-12-14T04:16:14;0.70;;;0.63;;
1000;SDS011;489;47.806;12.858;2023-12-14T04:18:17;1.60;;;0.87;;
1000;SDS011;489;47.806;12.858;2023-12-14T04:20:19;0.93;;;0.73;;
1000;SDS011;489;47.806;12.858;2023-12-14T04:22:24;1.57;;;0.60;;
1000;SDS011;489;47.806;12.858;2023-12-14T04:24:24;1.00;;;0.87;;
1000;SDS011;489;47.806;12.858;2023-12-14T04:26:27;2.67;;;1.50;;
1000;SDS011;489;47.806;12.858;2023-12-14T04:28:29;1.67;;;1.40;;
1000;SDS011;489;47.806;12.858;2023-12-14T04:30:31;3.10;;;1.90;;
1000;SDS011;489;47.806;12.858;2023-12-14T04:32:33;1.97;;;1.30;;
1000;SDS011;489;47.806;12.858;2023-12-14T04:34:36;1.43;;;1.10;;
1000;SDS011;489;47.806;12.858;2023-12-14T04:36:38;1.20;;;0.90;;
1000;SDS011;489;47.806;12.858;2023-12-14T04:38:39;1.03;;;0.80;;
1000;SDS011;489;47.806;12.858;2023-12-14T04:40:41;1.00;;;0.70;;
1000;SDS011;489;47.806;12.858;2023-12-14T04:42:43;1.03;;;0.77;;
1000;SDS011;489;47.806;12.858;2023-12-14T04:44:45;0.70;;;0.50;;
1000;SDS011;489;47.806;12.858;2023-12-14T04:46:47;1.10;;;0.50;;
1000;SDS011;489;47.806;12.858;2023-12-14T04:48:49;0.60;;;0.40;;
1000;SDS011;489;47.806;12.858;2023-12-14T04:50:52;0.53;;;0.43;;
1000;SDS011;489;47.806;12.858;2023-12-14T04:52:54;0.60;;;0.50;;
1000;SDS011;489;47.806;12.858;2023-12-14T04:54:56;0.50;;;0.40;;
1000;SDS011;489;47.806;12.858;2023-12-14T04:56:58;0.50;;;0.50;;
1000;SDS011;489;47.806;12.858;2023-12-14T04:59:00;1.27;;;0.50;;
1000;SDS011;489;47.806;12.858;2023-12-14T05:01:03;0.77;;;0.50;;
1000;SDS011;489;47.806;12.858;2023-12-14T05:03:04;0.57;;;0.40;;
1000;SDS011;489;47.806;12.858;2023-12-14T05:05:06;0.67;;;0.40;;
1000;SDS011;489;47.806;12.858;2023-12-14T05:07:09;1.23;;;0.50;;
1000;SDS011;489;47.806;12.858;2023-12-14T05:09:11;0.60;;;0.50;;
1000;SDS011;489;47.806;12.858;2023-12-14T05:11:13;0.70;;;0.50;;
1000;SDS011;489;47.806;12.858;2023-12-14T05:13:14;0.90;;;0.40;;
1000;SDS011;489;47.806;12.858;2023-12-14T05:15:16;1.90;;;1.10;;
1000;SDS011;489;47.806;12.858;2023-12-14T05:17:18;6.03;;;4.00;;
1000;SDS011;489;47.806;12.858;2023-12-14T05:19:20;8.07;;;5.07;;
1000;SDS011;489;47.806;12.858;2023-12-14T05:21:21;4.10;;;3.70;;
1000;SDS011;489;47.806;12.858;2023-12-14T05:23:25;2.93;;;2.60;;
1000;SDS011;489;47.806;12.858;2023-12-14T05:25:26;3.40;;;2.67;;
1000;SDS011;489;47.806;12.858;2023-12-14T05:27:28;2.27;;;2.07;;
1000;SDS011;489;47.806;12.858;2023-12-14T05:29:29;2.17;;;1.80;;
1000;SDS011;489;47.806;12.858;2023-12-14T05:31:33;2.00;;;1.87;;
1000;SDS011;489;47.806;12.858;2023-12-14T05:33:36;1.97;;;1.87;;
1000;SDS011;489;47.806;12.858;2023-12-14T05:35:38;1.87;;;1.70;;
1000;SDS011;489;47.806;12.858;2023-12-14T05:37:40;3.23;;;1.83;;
1000;SDS011;489;47.806;12.858;2023-12-14T05:39:43;1.00;;;0.97;;
1000;SDS011;489;47.806;12.858;2023-12-14T05:41:45;1.27;;;0.87;;
1000;SDS011;489;47.806;12.858;2023-12-14T05:43:47;2.63;;;2.20;;
1000;SDS011;489;47.806;12.858;2023-12-14T05:45:49;2.80;;;2.10;;
1000;SDS011;489;47.806;12.858;2023-12-14T05:47:51;2.07;;;1.60;;
1000;SDS011;489;47.806;12.858;2023-12-14T05:49:53;1.50;;;1.40;;
1000;SDS011;489;47.806;12.858;2023-12-14T05:51:55;1.90;;;1.80;;
1000;SDS011;489;47.806;12.858;2023-12-14T05:53:57;2.33;;;2.10;;
1000;SDS011;489;47.806;12.858;2023-12-14T05:56:00;1.97;;;1.13;;
1000;SDS011;489;47.806;12.858;2023-12-14T05:58:02;1.00;;;0.90;;
1000;SDS011;489;47.806;12.858;2023-12-14T06:00:04;1.10;;;1.00;;
1000;SDS011;489;47.806;12.858;2023-12-14T06:02:07;1.93;;;1.73;;
1000;SDS011;489;47.806;12.858;2023-12-14T06:04:09;1.73;;;1.57;;
1000;SDS011;489;47.806;12.858;2023-12-14T06:06:11;2.03;;;1.70;;
1000;SDS011;489;47.806;12.858;2023-12-14T06:08:13;1.37;;;1.23;;
1000;SDS011;489;47.806;12.858;2023-12-14T06:10:15;1.50;;;1.40;;
1000;SDS011;489;47.806;12.858;2023-12-14T06:12:18;1.30;;;1.20;;
1000;SDS011;489;47.806;12.858;2023-12-14T06:14:20;1.90;;;1.80;;
1000;SDS011;489;47.806;12.858;2023-12-14T06:16:23;1.13;;;0.90;;
1000;SDS011;489;47.806;12.858;2023-12-14T06:18:25;1.10;;;0.80;;
1000;SDS011;489;47.806;12.858;2023-12-14T06:20:26;0.90;;;0.80;;
1000;SDS011;489;47.806;12.858;2023-12-14T06:22:28;1.37;;;1.10;;
1000;SDS011;489;47.806;12.858;2023-12-14T06:24:30;1.30;;;1.20;;
1000;SDS011;489;47.806;12.858;2023-12-14T06:26:32;1.70;;;1.60;;
1000;SDS011;489;47.806;12.858;2023-12-14T06:28:35;1.47;;;1.20;;
1000;SDS011;489;47.806;12.858;2023-12-14T06:30:37;1.10;;;1.00;;
1000;SDS011;489;47.806;12.858;2023-12-14T06:32:39;0.87;;;0.67;;
1000;SDS011;489;47.806;12.858;2023-12-14T06:34:40;0.73;;;0.60;;
1000;SDS011;489;47.806;12.858;2023-12-14T06:36:42;1.07;;;0.57;;
1000;SDS011;489;47.806;12.858;2023-12-14T06:38:44;1.33;;;0.90;;
1000;SDS011;489;47.806;12.858;2023-12-14T06:40:47;0.87;;;0.77;;
1000;SDS011;489;47.806;12.858;2023-12-14T06:42:48;1.10;;;0.60;;
1000;SDS011;489;47.806;12.858;2023-12-14T06:44:51;0.60;;;0.50;;
1000;SDS011;489;47.806;12.858;2023-12-14T06:46:53;0.67;;;0.67;;
1000;SDS011;489;47.806;12.858;2023-12-14T06:48:56;0.60;;;0.60;;
1000;SDS011;489;47.806;12.858;2023-12-14T06:50:58;0.60;;;0.50;;
1000;SDS011;489;47.806;12.858;2023-12-14T06:53:00;0.60;;;0.50;;
1000;SDS011;489;47.806;12.858;2023-12-14T06:55:02;0.50;;;0.50;;
1000;SDS011;489;47.806;12.858;2023-12-14T06:57:04;0.80;;;0.60;;
1000;SDS011;489;47.806;12.858;2023-12-14T06:59:05;0.67;;;0.53;;
1000;SDS011;489;47.806;12.858;2023-12-14T07:01:10;0.90;;;0.50;;
1000;SDS011;489;47.806;12.858;2023-12-14T07:03:13;0.80;;;0.80;;
1000;SDS011;489;47.806;12.858;2023-12-14T07:05:16;0.73;;;0.70;;
1000;SDS011;489;47.806;12.858;2023-12-14T07:07:17;0.60;;;0.60;;
1000;SDS011;489;47.806;12.858;2023-12-14T07:09:18;0.60;;;0.60;;
1000;SDS011;489;47.806;12.858;2023-12-14T07:11:20;1.30;;;1.00;;
1000;SDS011;489;47.806;12.858;2023-12-14T07:13:22;1.40;;;0.93;;
1000;SDS011;489;47.806;12.858;2023-12-14T07:15:24;0.70;;;0.70;;
1000;SDS011;489;47.806;12.858;2023-12-14T07:17:27;1.03;;;0.50;;
1000;SDS011;489;47.806;12.858;2023-12-14T07:19:29;1.23;;;0.50;;
1000;SDS011;489;47.806;12.858;2023-12-14T07:21:32;0.70;;;0.60;;
1000;SDS011;489;47.806;12.858;2023-12-14T07:23:34;0.60;;;0.50;;
1000;SDS011;489;47.806;12.858;2023-12-14T07:25:35;0.80;;;0.60;;
1000;SDS011;489;47.806;12.858;2023-12-14T07:27:37;0.57;;;0.57;;
1000;SDS011;489;47.806;12.858;2023-12-14T07:29:41;0.60;;;0.60;;
1000;SDS011;489;47.806;12.858;2023-12-14T07:31:43;0.90;;;0.77;;
1000;SDS011;489;47.806;12.858;2023-12-14T07:33:46;0.93;;;0.90;;
1000;SDS011;489;47.806;12.858;2023-12-14T07:35:48;1.07;;;0.97;;
1000;SDS011;489;47.806;12.858;2023-12-14T07:37:50;0.77;;;0.77;;
1000;SDS011;489;47.806;12.858;2023-12-14T07:39:51;0.70;;;0.60;;
1000;SDS011;489;47.806;12.858;2023-12-14T07:41:53;0.60;;;0.60;;
1000;SDS011;489;47.806;12.858;2023-12-14T07:43:55;0.70;;;0.70;;
1000;SDS011;489;47.806;12.858;2023-12-14T07:45:57;0.70;;;0.70;;
1000;SDS011;489;47.806;12.858;2023-12-14T07:47:59;0.77;;;0.73;;
1000;SDS011;489;47.806;12.858;2023-12-14T07:50:01;0.63;;;0.60;;
1000;SDS011;489;47.806;12.858;2023-12-14T07:52:04;0.70;;;0.50;;
1000;SDS011;489;47.806;12.858;2023-12-14T07:54:07;0.60;;;0.53;;
1000;SDS011;489;47.806;12.858;2023-12-14T07:56:09;0.97;;;0.83;;
1000;SDS011;489;47.806;12.858;2023-12-14T07:58:10;1.50;;;1.40;;
1000;SDS011;489;47.806;12.858;2023-12-14T08:00:13;1.03;;;0.90;;
1000;SDS011;489;47.806;12.858;2023-12-14T08:02:15;0.50;;;0.40;;
1000;SDS011;489;47.806;12.858;2023-12-14T08:04:17;0.90;;;0.70;;
1000;SDS011;489;47.806;12.858;2023-12-14T08:06:20;0.90;;;0.80;;
1000;SDS011;489;47.806;12.858;2023-12-14T08:08:22;0.80;;;0.70;;
1000;SDS011;489;47.806;12.858;2023-12-14T08:10:24;0.70;;;0.60;;
1000;SDS011;489;47.806;12.858;2023-12-14T08:12:26;0.60;;;0.50;;
1000;SDS011;489;47.806;12.858;2023-12-14T08:14:27;0.57;;;0.50;;
1000;SDS011;489;47.806;12.858;2023-12-14T08:16:29;1.00;;;0.80;;
1000;SDS011;489;47.806;12.858;2023-12-14T08:18:31;0.87;;;0.80;;
1000;SDS011;489;47.806;12.858;2023-12-14T08:20:33;0.60;;;0.57;;
1000;SDS011;489;47.806;12.858;2023-12-14T08:22:35;0.80;;;0.80;;
1000;SDS011;489;47.806;12.858;2023-12-14T08:24:37;1.80;;;1.10;;
1000;SDS011;489;47.806;12.858;2023-12-14T08:26:39;2.03;;;1.10;;
1000;SDS011;489;47.806;12.858;2023-12-14T08:28:43;0.80;;;0.80;;
1000;SDS011;489;47.806;12.858;2023-12-14T08:30:44;1.10;;;0.80;;
1000;SDS011;489;47.806;12.858;2023-12-14T08:32:46;1.83;;;0.80;;
1000;SDS011;489;47.806;12.858;2023-12-14T08:34:47;1.03;;;0.93;;
1000;SDS011;489;47.806;12.858;2023-12-14T08:36:50;1.03;;;0.90;;
1000;SDS011;489;47.806;12.858;2023-12-14T08:38:54;2.30;;;1.00;;
1000;SDS011;489;47.806;12.858;2023-12-14T08:40:55;1.40;;;1.23;;
1000;SDS011;489;47.806;12.858;2023-12-14T08:42:58;1.27;;;1.07;;
1000;SDS011;489;47.806;12.858;2023-12-14T08:45:00;1.37;;;1.23;;
1000;SDS011;489;47.806;12.858;2023-12-14T08:47:02;1.03;;;0.90;;
1000;SDS011;489;47.806;12.858;2023-12-14T08:49:05;1.10;;;1.00;;
1000;SDS011;489;47.806;12.858;2023-12-14T08:51:29;1.20;;;1.10;;
1000;SDS011;489;47.806;12.858;2023-12-14T08:53:31;1.27;;;1.20;;
1000;SDS011;489;47.806;12.858;2023-12-14T08:55:34;1.17;;;0.90;;
1000;SDS011;489;47.806;12.858;2023-12-14T08:57:36;1.00;;;0.90;;
1000;SDS011;489;47.806;12.858;2023-12-14T08:59:37;1.17;;;1.07;;
1000;SDS011;489;47.806;12.858;2023-12-14T09:01:41;1.43;;;1.33;;
1000;SDS011;489;47.806;12.858;2023-12-14T09:03:43;1.50;;;1.37;;
1000;SDS011;489;47.806;12.858;2023-12-14T09:05:44;1.50;;;1.40;;
1000;SDS011;489;47.806;12.858;2023-12-14T09:07:46;1.30;;;1.20;;
1000;SDS011;489;47.806;12.858;2023-12-14T09:09:48;1.60;;;1.50;;
1000;SDS011;489;47.806;12.858;2023-12-14T09:11:51;1.27;;;1.17;;
1000;SDS011;489;47.806;12.858;2023-12-14T09:13:53;1.47;;;1.37;;
1000;SDS011;489;47.806;12.858;2023-12-14T09:15:54;1.30;;;1.20;;
1000;SDS011;489;47.806;12.858;2023-12-14T09:17:56;1.40;;;1.30;;
1000;SDS011;489;47.806;12.858;2023-12-14T09:19:58;2.50;;;1.60;;
1000;SDS011;489;47.806;12.858;2023-12-14T09:22:00;1.60;;;1.40;;
1000;SDS011;489;47.806;12.858;2023-12-14T09:24:01;1.80;;;1.40;;
1000;SDS011;489;47.806;12.858;2023-12-14T09:26:03;1.67;;;1.57;;
1000;SDS011;489;47.806;12.858;2023-12-14T09:28:06;1.97;;;1.70;;
1000;SDS011;489;47.806;12.858;2023-12-14T09:30:08;1.60;;;1.50;;
1000;SDS011;489;47.806;12.858;2023-12-14T09:32:12;1.80;;;1.70;;
1000;SDS011;489;47.806;12.858;2023-12-14T09:34:14;1.43;;;1.33;;
1000;SDS011;489;47.806;12.858;2023-12-14T09:36:16;1.53;;;1.37;;
1000;SDS011;489;47.806;12.858;2023-12-14T09:38:18;1.47;;;1.37;;
1000;SDS011;489;47.806;12.858;2023-12-14T09:40:20;1.50;;;1.40;;
1000;SDS011;489;47.806;12.858;2023-12-14T09:42:22;2.13;;;1.60;;
1000;SDS011;489;47.806;12.858;2023-12-14T09:44:28;3.20;;;1.70;;
1000;SDS011;489;47.806;12.858;2023-12-14T09:46:31;2.17;;;1.63;;
1000;SDS011;489;47.806;12.858;2023-12-14T09:48:32;2.53;;;1.43;;
1000;SDS011;489;47.806;12.858;2023-12-14T09:50:35;2.40;;;1.80;;
1000;SDS011;489;47.806;12.858;2023-12-14T09:52:37;1.47;;;1.37;;
1000;SDS011;489;47.806;12.858;2023-12-14T09:54:39;1.87;;;1.77;;
1000;SDS011;489;47.806;12.858;2023-12-14T09:56:47;2.13;;;1.93;;
1000;SDS011;489;47.806;12.858;2023-12-14T09:58:49;1.60;;;1.50;;
1000;SDS011;489;47.806;12.858;2023-12-14T10:00:51;1.60;;;1.50;;
1000;SDS011;489;47.806;12.858;2023-12-14T10:02:53;1.73;;;1.63;;
1000;SDS011;489;47.806;12.858;2023-12-14T10:04:54;1.83;;;1.73;;
1000;SDS011;489;47.806;12.858;2023-12-14T10:06:56;2.03;;;1.70;;
1000;SDS011;489;47.806;12.858;2023-12-14T10:08:58;1.27;;;1.17;;
1000;SDS011;489;47.806;12.858;2023-12-14T10:10:59;1.63;;;1.53;;
1000;SDS011;489;47.806;12.858;2023-12-14T10:13:01;1.47;;;1.37;;
1000;SDS011;489;47.806;12.858;2023-12-14T10:15:04;1.70;;;1.30;;
1000;SDS011;489;47.806;12.858;2023-12-14T10:17:18;1.63;;;1.40;;
1000;SDS011;489;47.806;12.858;2023-12-14T10:19:21;4.70;;;2.40;;
1000;SDS011;489;47.806;12.858;2023-12-14T10:21:23;2.50;;;1.57;;
1000;SDS011;489;47.806;12.858;2023-12-14T10:23:24;2.20;;;1.50;;
1000;SDS011;489;47.806;12.858;2023-12-14T10:25:26;1.40;;;1.20;;
1000;SDS011;489;47.806;12.858;2023-12-14T10:27:29;2.17;;;1.87;;
1000;SDS011;489;47.806;12.858;2023-12-14T10:29:32;1.83;;;1.47;;
1000;SDS011;489;47.806;12.858;2023-12-14T10:31:33;1.10;;;1.00;;
1000;SDS011;489;47.806;12.858;2023-12-14T10:33:39;1.27;;;1.17;;
1000;SDS011;489;47.806;12.858;2023-12-14T10:35:58;1.50;;;1.40;;
1000;SDS011;489;47.806;12.858;2023-12-14T10:38:02;1.57;;;1.47;;
1000;SDS011;489;47.806;12.858;2023-12-14T10:40:05;1.40;;;1.30;;
1000;SDS011;489;47.806;12.858;2023-12-14T10:42:08;1.70;;;1.60;;
1000;SDS011;489;47.806;12.858;2023-12-14T10:44:10;1.60;;;1.50;;
1000;SDS011;489;47.806;12.858;2023-12-14T10:46:12;1.73;;;1.63;;
1000;SDS011;489;47.806;12.858;2023-12-14T10:48:15;1.50;;;1.40;;
1000;SDS011;489;47.806;12.858;2023-12-14T10:50:22;1.60;;;1.50;;
1000;SDS011;489;47.806;12.858;2023-12-14T10:52:24;1.60;;;1.43;;
1000;SDS011;489;47.806;12.858;2023-12-14T10:54:27;2.00;;;1.80;;
1000;SDS011;489;47.806;12.858;2023-12-14T10:56:30;1.50;;;1.30;;
1000;SDS011;489;47.806;12.858;2023-12-14T10:58:44;2.80;;;1.80;;
1000;SDS011;489;47.806;12.858;2023-12-14T11:00:58;1.50;;;1.40;;
1000;SDS011;489;47.806;12.858;2023-12-14T11:03:01;1.80;;;1.20;;
1000;SDS011;489;47.806;12.858;2023-12-14T11:05:05;1.33;;;1.10;;
1000;SDS011;489;47.806;12.858;2023-12-14T11:07:11;1.60;;;1.20;;
1000;SDS011;489;47.806;12.858;2023-12-14T11:09:13;2.13;;;1.10;;
1000;SDS011;489;47.806;12.858;2023-12-14T11:11:19;1.57;;;1.13;;
1000;SDS011;489;47.806;12.858;2023-12-14T11:13:20;1.30;;;1.10;;
1000;SDS011;489;47.806;12.858;2023-12-14T11:15:23;1.40;;;1.27;;
1000;SDS011;489;47.806;12.858;2023-12-14T11:17:24;1.37;;;1.10;;
1000;SDS011;489;47.806;12.858;2023-12-14T11:19:28;1.60;;;1.50;;
1000;SDS011;489;47.806;12.858;2023-12-14T11:21:30;2.00;;;1.40;;
1000;SDS011;489;47.806;12.858;2023-12-14T11:23:35;1.50;;;1.13;;
1000;SDS011;489;47.806;12.858;2023-12-14T11:25:39;1.50;;;1.13;;
1000;SDS011;489;47.806;12.858;2023-12-14T11:27:42;2.03;;;1.23;;
1000;SDS011;489;47.806;12.858;2023-12-14T11:29:45;1.97;;;1.67;;
1000;SDS011;489;47.806;12.858;2023-12-14T11:31:46;1.87;;;1.70;;
1000;SDS011;489;47.806;12.858;2023-12-14T11:33:48;1.60;;;1.40;;
1000;SDS011;489;47.806;12.858;2023-12-14T11:35:50;1.27;;;1.17;;
1000;SDS011;489;47.806;12.858;2023-12-14T11:37:53;1.20;;;0.93;;
1000;SDS011;489;47.806;12.858;2023-12-14T11:39:58;0.93;;;0.83;;
1000;SDS011;489;47.806;12.858;2023-12-14T11:42:00;1.13;;;0.90;;
1000;SDS011;489;47.806;12.858;2023-12-14T11:44:02;0.90;;;0.90;;
1000;SDS011;489;47.806;12.858;2023-12-14T11:46:04;1.00;;;0.90;;
1000;SDS011;489;47.806;12.858;2023-12-14T11:48:07;1.13;;;1.00;;
1000;SDS011;489;47.806;12.858;2023-12-14T11:50:10;1.33;;;1.23;;
1000;SDS011;489;47.806;12.858;2023-12-14T11:52:12;1.67;;;1.30;;
1000;SDS011;489;47.806;12.858;2023-12-14T11:54:13;1.10;;;1.00;;
1000;SDS011;489;47.806;12.858;2023-12-14T11:56:16;1.20;;;1.10;;
1000;SDS011;489;47.806;12.858;2023-12-14T11:58:18;1.30;;;1.20;;
1000;SDS011;489;47.806;12.858;2023-12-14T12:00:23;0.80;;;0.80;;
1000;SDS011;489;47.806;12.858;2023-12-14T12:02:25;0.90;;;0.80;;
1000;SDS011;489;47.806;12.858;2023-12-14T12:04:27;0.83;;;0.83;;
1000;SDS011;489;47.806;12.858;2023-12-14T12:06:29;1.63;;;0.90;;
1000;SDS011;489;47.806;12.858;2023-12-14T12:08:31;1.00;;;0.97;;
1000;SDS011;489;47.806;12.858;2023-12-14T12:10:42;2.77;;;0.83;;
1000;SDS011;489;47.806;12.858;2023-12-14T12:12:46;1.10;;;0.93;;
1000;SDS011;489;47.806;12.858;2023-12-14T12:14:48;0.80;;;0.73;;
1000;SDS011;489;47.806;12.858;2023-12-14T12:16:52;1.30;;;1.10;;
1000;SDS011;489;47.806;12.858;2023-12-14T12:18:53;1.10;;;1.00;;
1000;SDS011;489;47.806;12.858;2023-12-14T12:20:55;1.20;;;1.10;;
1000;SDS011;489;47.806;12.858;2023-12-14T12:22:58;1.10;;;0.90;;
1000;SDS011;489;47.806;12.858;2023-12-14T12:25:00;0.93;;;0.70;;
1000;SDS011;489;47.806;12.858;2023-12-14T12:27:02;1.10;;;0.77;;
1000;SDS011;489;47.806;12.858;2023-12-14T12:29:05;1.10;;;0.80;;
1000;SDS011;489;47.806;12.858;2023-12-14T12:31:10;0.70;;;0.70;;
1000;SDS011;489;47.806;12.858;2023-12-14T12:33:12;0.77;;;0.70;;
1000;SDS011;489;47.806;12.858;2023-12-14T12:35:14;1.00;;;0.90;;
1000;SDS011;489;47.806;12.858;2023-12-14T12:37:38;1.80;;;1.70;;
1000;SDS011;489;47.806;12.858;2023-12-14T12:39:39;2.73;;;2.53;;
1000;SDS011;489;47.806;12.858;2023-12-14T12:41:41;2.00;;;1.80;;